sensor_id;sensor_type;location;lat;lon;timestamp;temperature;humidity
15341;DHT22;7770;52.158;5.372;2023-04-30T00:00:07;8.30;99.90
15341;DHT22;7770;52.158;5.372;2023-04-30T00:02:55;8.30;99.90
15341;DHT22;7770;52.158;5.372;2023-04-30T00:05:41;8.20;99.90
15341;DHT22;7770;52.158;5.372;2023-04-30T00:08:27;8.20;99.90
15341;DHT22;7770;52.158;5.372;2023-04-30T00:11:14;8.20;99.90
15341;DHT22;7770;52.158;5.372;2023-04-30T00:14:00;8.20;99.90
15341;DHT22;7770;52.158;5.372;2023-04-30T00:16:46;8.10;99.90
15341;DHT22;7770;52.158;5.372;2023-04-30T00:19:32;8.10;99.90
15341;DHT22;7770;52.158;5.372;2023-04-30T00:22:18;8.10;99.90
15341;DHT22;7770;52.158;5.372;2023-04-30T00:25:04;8.10;99.90
15341;DHT22;7770;52.158;5.372;2023-04-30T00:27:51;8.10;99.90
15341;DHT22;7770;52.158;5.372;2023-04-30T00:30:37;8.10;99.90
15341;DHT22;7770;52.158;5.372;2023-04-30T00:33:23;8.10;99.90
15341;DHT22;7770;52.158;5.372;2023-04-30T00:36:09;8.10;99.90
15341;DHT22;7770;52.158;5.372;2023-04-30T00:38:55;8.00;99.90
15341;DHT22;7770;52.158;5.372;2023-04-30T00:41:41;8.00;99.90
15341;DHT22;7770;52.158;5.372;2023-04-30T00:44:28;8.00;99.90
15341;DHT22;7770;52.158;5.372;2023-04-30T00:47:14;7.90;99.90
15341;DHT22;7770;52.158;5.372;2023-04-30T00:50:00;7.90;99.90
15341;DHT22;7770;52.158;5.372;2023-04-30T00:52:46;7.90;99.90
15341;DHT22;7770;52.158;5.372;2023-04-30T00:55:32;7.80;99.90
15341;DHT22;7770;52.158;5.372;2023-04-30T00:58:18;7.80;99.90
15341;DHT22;7770;52.158;5.372;2023-04-30T01:01:05;7.80;99.90
15341;DHT22;7770;52.158;5.372;2023-04-30T01:03:51;7.80;99.90
15341;DHT22;7770;52.158;5.372;2023-04-30T01:06:37;7.80;99.90
15341;DHT22;7770;52.158;5.372;2023-04-30T01:09:24;7.70;99.90
15341;DHT22;7770;52.158;5.372;2023-04-30T01:21:11;7.50;99.90
15341;DHT22;7770;52.158;5.372;2023-04-30T01:27:47;7.50;99.90
15341;DHT22;7770;52.158;5.372;2023-04-30T01:30:36;7.50;99.90
15341;DHT22;7770;52.158;5.372;2023-04-30T01:33:22;7.40;99.90
15341;DHT22;7770;52.158;5.372;2023-04-30T01:36:25;7.40;99.90
15341;DHT22;7770;52.158;5.372;2023-04-30T01:42:57;7.40;99.90
15341;DHT22;7770;52.158;5.372;2023-04-30T01:48:52;7.40;99.90
15341;DHT22;7770;52.158;5.372;2023-04-30T01:51:43;7.50;99.90
15341;DHT22;7770;52.158;5.372;2023-04-30T01:54:44;7.50;99.90
15341;DHT22;7770;52.158;5.372;2023-04-30T01:57:43;7.60;99.90
15341;DHT22;7770;52.158;5.372;2023-04-30T02:00:35;7.70;99.90
15341;DHT22;7770;52.158;5.372;2023-04-30T02:03:21;7.80;99.90
15341;DHT22;7770;52.158;5.372;2023-04-30T02:06:07;7.90;99.90
15341;DHT22;7770;52.158;5.372;2023-04-30T02:08:53;7.90;99.90
15341;DHT22;7770;52.158;5.372;2023-04-30T02:11:40;7.90;99.90
15341;DHT22;7770;52.158;5.372;2023-04-30T02:14:26;8.00;99.90
15341;DHT22;7770;52.158;5.372;2023-04-30T02:17:12;7.90;99.90
15341;DHT22;7770;52.158;5.372;2023-04-30T02:19:58;7.80;99.90
15341;DHT22;7770;52.158;5.372;2023-04-30T02:22:45;7.70;99.90
15341;DHT22;7770;52.158;5.372;2023-04-30T02:25:31;7.60;99.90
15341;DHT22;7770;52.158;5.372;2023-04-30T02:28:22;7.60;99.90
15341;DHT22;7770;52.158;5.372;2023-04-30T02:31:08;7.50;99.90
15341;DHT22;7770;52.158;5.372;2023-04-30T02:33:54;7.40;99.90
15341;DHT22;7770;52.158;5.372;2023-04-30T02:36:40;7.40;99.90
15341;DHT22;7770;52.158;5.372;2023-04-30T02:39:26;7.40;99.90
15341;DHT22;7770;52.158;5.372;2023-04-30T02:42:12;7.40;99.90
15341;DHT22;7770;52.158;5.372;2023-04-30T02:44:58;7.40;99.90
15341;DHT22;7770;52.158;5.372;2023-04-30T02:47:44;7.40;99.90
15341;DHT22;7770;52.158;5.372;2023-04-30T02:50:30;7.30;99.90
15341;DHT22;7770;52.158;5.372;2023-04-30T02:53:16;7.30;99.90
15341;DHT22;7770;52.158;5.372;2023-04-30T02:56:02;7.30;99.90
15341;DHT22;7770;52.158;5.372;2023-04-30T02:58:49;7.30;99.90
15341;DHT22;7770;52.158;5.372;2023-04-30T03:01:35;7.30;99.90
15341;DHT22;7770;52.158;5.372;2023-04-30T03:04:21;7.30;99.90
15341;DHT22;7770;52.158;5.372;2023-04-30T03:07:07;7.30;99.90
15341;DHT22;7770;52.158;5.372;2023-04-30T03:09:53;7.20;99.90
15341;DHT22;7770;52.158;5.372;2023-04-30T03:12:39;7.20;99.90
15341;DHT22;7770;52.158;5.372;2023-04-30T03:15:25;7.20;99.90
15341;DHT22;7770;52.158;5.372;2023-04-30T03:18:11;7.20;99.90
15341;DHT22;7770;52.158;5.372;2023-04-30T03:20:57;7.10;99.90
15341;DHT22;7770;52.158;5.372;2023-04-30T03:23:43;7.20;99.90
15341;DHT22;7770;52.158;5.372;2023-04-30T03:26:29;7.10;99.90
15341;DHT22;7770;52.158;5.372;2023-04-30T03:29:16;7.10;99.90
15341;DHT22;7770;52.158;5.372;2023-04-30T03:32:02;7.10;99.90
15341;DHT22;7770;52.158;5.372;2023-04-30T03:34:48;7.10;99.90
15341;DHT22;7770;52.158;5.372;2023-04-30T03:37:34;7.10;99.90
15341;DHT22;7770;52.158;5.372;2023-04-30T03:40:20;7.00;99.90
15341;DHT22;7770;52.158;5.372;2023-04-30T03:43:06;7.00;99.90
15341;DHT22;7770;52.158;5.372;2023-04-30T03:45:52;7.00;99.90
15341;DHT22;7770;52.158;5.372;2023-04-30T03:48:38;7.00;99.90
15341;DHT22;7770;52.158;5.372;2023-04-30T03:51:24;7.00;99.90
15341;DHT22;7770;52.158;5.372;2023-04-30T03:54:12;6.90;99.90
15341;DHT22;7770;52.158;5.372;2023-04-30T03:56:58;6.90;99.90
15341;DHT22;7770;52.158;5.372;2023-04-30T03:59:45;6.90;99.90
15341;DHT22;7770;52.158;5.372;2023-04-30T04:02:31;6.90;99.90
15341;DHT22;7770;52.158;5.372;2023-04-30T04:05:17;6.90;99.90
15341;DHT22;7770;52.158;5.372;2023-04-30T04:08:03;6.90;99.90
15341;DHT22;7770;52.158;5.372;2023-04-30T04:10:50;6.90;99.90
15341;DHT22;7770;52.158;5.372;2023-04-30T04:13:36;6.90;99.90
15341;DHT22;7770;52.158;5.372;2023-04-30T04:16:23;6.90;99.90
15341;DHT22;7770;52.158;5.372;2023-04-30T04:19:09;6.90;99.90
15341;DHT22;7770;52.158;5.372;2023-04-30T04:21:55;6.90;99.90
15341;DHT22;7770;52.158;5.372;2023-04-30T04:24:42;6.90;99.90
15341;DHT22;7770;52.158;5.372;2023-04-30T04:27:28;6.90;99.90
15341;DHT22;7770;52.158;5.372;2023-04-30T04:30:14;6.90;99.90
15341;DHT22;7770;52.158;5.372;2023-04-30T04:33:00;6.90;99.90
15341;DHT22;7770;52.158;5.372;2023-04-30T04:35:46;6.90;99.90
15341;DHT22;7770;52.158;5.372;2023-04-30T04:38:32;6.90;99.90
15341;DHT22;7770;52.158;5.372;2023-04-30T04:41:18;6.90;99.90
15341;DHT22;7770;52.158;5.372;2023-04-30T04:44:04;6.90;99.90
15341;DHT22;7770;52.158;5.372;2023-04-30T04:46:50;6.90;99.90
15341;DHT22;7770;52.158;5.372;2023-04-30T04:49:38;6.90;99.90
15341;DHT22;7770;52.158;5.372;2023-04-30T04:52:24;7.00;99.90
15341;DHT22;7770;52.158;5.372;2023-04-30T04:55:10;7.00;99.90
15341;DHT22;7770;52.158;5.372;2023-04-30T04:57:56;7.00;99.90
15341;DHT22;7770;52.158;5.372;2023-04-30T05:00:43;7.00;99.90
15341;DHT22;7770;52.158;5.372;2023-04-30T05:03:30;7.00;99.90
15341;DHT22;7770;52.158;5.372;2023-04-30T05:06:17;7.00;99.90
15341;DHT22;7770;52.158;5.372;2023-04-30T05:09:03;7.20;99.90
15341;DHT22;7770;52.158;5.372;2023-04-30T05:11:53;7.50;99.90
15341;DHT22;7770;52.158;5.372;2023-04-30T05:14:39;8.10;99.90
15341;DHT22;7770;52.158;5.372;2023-04-30T05:17:25;8.90;99.90
15341;DHT22;7770;52.158;5.372;2023-04-30T05:20:11;9.70;99.90
15341;DHT22;7770;52.158;5.372;2023-04-30T05:22:58;10.10;99.90
15341;DHT22;7770;52.158;5.372;2023-04-30T05:25:44;10.20;99.90
15341;DHT22;7770;52.158;5.372;2023-04-30T05:28:30;10.30;99.90
15341;DHT22;7770;52.158;5.372;2023-04-30T05:31:17;10.40;99.90
15341;DHT22;7770;52.158;5.372;2023-04-30T05:34:03;10.70;99.90
15341;DHT22;7770;52.158;5.372;2023-04-30T05:36:49;10.80;99.90
15341;DHT22;7770;52.158;5.372;2023-04-30T05:39:35;10.70;99.90
15341;DHT22;7770;52.158;5.372;2023-04-30T05:42:21;11.10;99.90
15341;DHT22;7770;52.158;5.372;2023-04-30T05:45:07;11.10;99.90
15341;DHT22;7770;52.158;5.372;2023-04-30T05:47:54;10.60;99.90
15341;DHT22;7770;52.158;5.372;2023-04-30T05:50:40;10.40;99.90
15341;DHT22;7770;52.158;5.372;2023-04-30T05:53:26;10.00;99.90
15341;DHT22;7770;52.158;5.372;2023-04-30T05:56:12;9.80;99.90
15341;DHT22;7770;52.158;5.372;2023-04-30T05:58:58;9.70;99.90
15341;DHT22;7770;52.158;5.372;2023-04-30T06:01:44;9.80;99.90
15341;DHT22;7770;52.158;5.372;2023-04-30T06:04:30;9.90;99.90
15341;DHT22;7770;52.158;5.372;2023-04-30T06:07:16;9.80;99.90
15341;DHT22;7770;52.158;5.372;2023-04-30T06:10:02;9.50;99.90
15341;DHT22;7770;52.158;5.372;2023-04-30T06:12:48;9.50;99.90
15341;DHT22;7770;52.158;5.372;2023-04-30T06:15:34;9.40;99.90
15341;DHT22;7770;52.158;5.372;2023-04-30T06:18:20;9.30;99.90
15341;DHT22;7770;52.158;5.372;2023-04-30T06:21:06;9.60;99.90
15341;DHT22;7770;52.158;5.372;2023-04-30T06:23:52;10.00;99.90
15341;DHT22;7770;52.158;5.372;2023-04-30T06:26:38;10.20;99.90
15341;DHT22;7770;52.158;5.372;2023-04-30T06:29:24;10.40;99.90
15341;DHT22;7770;52.158;5.372;2023-04-30T06:32:10;10.80;99.90
15341;DHT22;7770;52.158;5.372;2023-04-30T06:34:57;11.10;99.90
15341;DHT22;7770;52.158;5.372;2023-04-30T06:37:43;10.90;99.90
15341;DHT22;7770;52.158;5.372;2023-04-30T06:40:29;10.70;99.90
15341;DHT22;7770;52.158;5.372;2023-04-30T06:43:16;10.60;99.90
15341;DHT22;7770;52.158;5.372;2023-04-30T06:46:02;10.40;99.90
15341;DHT22;7770;52.158;5.372;2023-04-30T06:48:48;10.30;99.90
15341;DHT22;7770;52.158;5.372;2023-04-30T06:51:34;10.50;99.90
15341;DHT22;7770;52.158;5.372;2023-04-30T06:54:20;11.20;99.90
15341;DHT22;7770;52.158;5.372;2023-04-30T06:57:07;10.90;99.90
15341;DHT22;7770;52.158;5.372;2023-04-30T06:59:54;11.00;99.90
15341;DHT22;7770;52.158;5.372;2023-04-30T07:02:40;11.00;99.90
15341;DHT22;7770;52.158;5.372;2023-04-30T07:05:26;11.10;99.90
15341;DHT22;7770;52.158;5.372;2023-04-30T07:08:12;11.00;99.90
15341;DHT22;7770;52.158;5.372;2023-04-30T07:10:59;11.40;99.90
15341;DHT22;7770;52.158;5.372;2023-04-30T07:13:46;11.80;99.90
15341;DHT22;7770;52.158;5.372;2023-04-30T07:16:32;12.30;99.90
15341;DHT22;7770;52.158;5.372;2023-04-30T07:19:19;12.20;99.90
15341;DHT22;7770;52.158;5.372;2023-04-30T07:22:05;12.60;99.90
15341;DHT22;7770;52.158;5.372;2023-04-30T07:24:51;13.40;99.90
15341;DHT22;7770;52.158;5.372;2023-04-30T07:27:37;13.40;99.90
15341;DHT22;7770;52.158;5.372;2023-04-30T07:30:23;13.60;99.90
15341;DHT22;7770;52.158;5.372;2023-04-30T07:33:09;13.80;99.90
15341;DHT22;7770;52.158;5.372;2023-04-30T07:35:55;13.20;99.90
15341;DHT22;7770;52.158;5.372;2023-04-30T07:38:43;12.80;99.90
15341;DHT22;7770;52.158;5.372;2023-04-30T07:41:29;13.10;99.90
15341;DHT22;7770;52.158;5.372;2023-04-30T07:44:15;14.50;99.90
15341;DHT22;7770;52.158;5.372;2023-04-30T07:47:01;15.30;99.90
15341;DHT22;7770;52.158;5.372;2023-04-30T07:49:48;15.90;99.90
15341;DHT22;7770;52.158;5.372;2023-04-30T07:52:34;16.90;99.90
15341;DHT22;7770;52.158;5.372;2023-04-30T07:55:20;17.80;99.90
15341;DHT22;7770;52.158;5.372;2023-04-30T07:58:06;17.60;99.90
15341;DHT22;7770;52.158;5.372;2023-04-30T08:00:52;18.00;99.80
15341;DHT22;7770;52.158;5.372;2023-04-30T08:03:38;18.50;98.80
15341;DHT22;7770;52.158;5.372;2023-04-30T08:06:24;18.00;98.70
15341;DHT22;7770;52.158;5.372;2023-04-30T08:09:12;18.90;97.50
15341;DHT22;7770;52.158;5.372;2023-04-30T08:11:58;18.20;97.80
15341;DHT22;7770;52.158;5.372;2023-04-30T08:14:44;18.50;97.70
15341;DHT22;7770;52.158;5.372;2023-04-30T08:17:33;18.20;98.20
15341;DHT22;7770;52.158;5.372;2023-04-30T08:20:19;18.40;97.80
15341;DHT22;7770;52.158;5.372;2023-04-30T08:23:07;18.60;97.70
15341;DHT22;7770;52.158;5.372;2023-04-30T08:25:53;19.30;96.70
15341;DHT22;7770;52.158;5.372;2023-04-30T08:28:40;19.40;95.90
15341;DHT22;7770;52.158;5.372;2023-04-30T08:31:27;19.10;96.60
15341;DHT22;7770;52.158;5.372;2023-04-30T08:34:13;19.10;96.60
15341;DHT22;7770;52.158;5.372;2023-04-30T08:36:59;18.90;95.80
15341;DHT22;7770;52.158;5.372;2023-04-30T08:39:45;18.80;95.80
15341;DHT22;7770;52.158;5.372;2023-04-30T08:42:35;18.60;96.70
15341;DHT22;7770;52.158;5.372;2023-04-30T08:45:22;19.40;95.50
15341;DHT22;7770;52.158;5.372;2023-04-30T08:48:12;20.40;94.20
15341;DHT22;7770;52.158;5.372;2023-04-30T08:51:00;20.30;94.10
15341;DHT22;7770;52.158;5.372;2023-04-30T08:53:48;20.90;93.30
15341;DHT22;7770;52.158;5.372;2023-04-30T08:56:35;20.40;93.60
15341;DHT22;7770;52.158;5.372;2023-04-30T08:59:21;20.90;93.70
15341;DHT22;7770;52.158;5.372;2023-04-30T09:02:07;21.50;94.20
15341;DHT22;7770;52.158;5.372;2023-04-30T09:04:55;22.30;93.20
15341;DHT22;7770;52.158;5.372;2023-04-30T09:07:42;22.20;93.30
15341;DHT22;7770;52.158;5.372;2023-04-30T09:10:34;21.30;93.50
15341;DHT22;7770;52.158;5.372;2023-04-30T09:13:20;20.90;94.10
15341;DHT22;7770;52.158;5.372;2023-04-30T09:16:06;21.40;94.20
15341;DHT22;7770;52.158;5.372;2023-04-30T09:18:52;21.60;94.20
15341;DHT22;7770;52.158;5.372;2023-04-30T09:21:38;22.70;92.80
15341;DHT22;7770;52.158;5.372;2023-04-30T09:24:24;22.60;91.90
15341;DHT22;7770;52.158;5.372;2023-04-30T09:27:18;23.30;91.00
15341;DHT22;7770;52.158;5.372;2023-04-30T09:30:06;22.20;91.60
15341;DHT22;7770;52.158;5.372;2023-04-30T09:32:55;22.70;93.00
15341;DHT22;7770;52.158;5.372;2023-04-30T09:35:41;24.00;90.70
15341;DHT22;7770;52.158;5.372;2023-04-30T09:38:29;25.00;89.60
15341;DHT22;7770;52.158;5.372;2023-04-30T09:41:25;26.00;89.00
15341;DHT22;7770;52.158;5.372;2023-04-30T09:44:30;26.30;86.40
15341;DHT22;7770;52.158;5.372;2023-04-30T09:47:19;24.80;86.00
15341;DHT22;7770;52.158;5.372;2023-04-30T09:50:05;24.20;86.80
15341;DHT22;7770;52.158;5.372;2023-04-30T09:52:52;23.70;86.80
15341;DHT22;7770;52.158;5.372;2023-04-30T09:55:42;21.50;90.70
15341;DHT22;7770;52.158;5.372;2023-04-30T09:58:30;22.40;90.30
15341;DHT22;7770;52.158;5.372;2023-04-30T10:01:25;22.50;90.20
15341;DHT22;7770;52.158;5.372;2023-04-30T10:04:12;22.10;90.00
15341;DHT22;7770;52.158;5.372;2023-04-30T10:07:03;22.40;88.80
15341;DHT22;7770;52.158;5.372;2023-04-30T10:09:56;23.50;89.00
15341;DHT22;7770;52.158;5.372;2023-04-30T10:12:53;23.20;90.30
15341;DHT22;7770;52.158;5.372;2023-04-30T10:15:47;22.50;90.00
15341;DHT22;7770;52.158;5.372;2023-04-30T10:18:38;24.60;86.80
15341;DHT22;7770;52.158;5.372;2023-04-30T10:21:26;20.80;91.20
15341;DHT22;7770;52.158;5.372;2023-04-30T10:24:13;22.00;91.50
15341;DHT22;7770;52.158;5.372;2023-04-30T10:27:00;22.60;90.40
15341;DHT22;7770;52.158;5.372;2023-04-30T10:29:46;23.80;90.20
15341;DHT22;7770;52.158;5.372;2023-04-30T10:32:40;24.30;89.60
15341;DHT22;7770;52.158;5.372;2023-04-30T10:35:38;23.80;87.80
15341;DHT22;7770;52.158;5.372;2023-04-30T10:38:31;25.10;86.50
15341;DHT22;7770;52.158;5.372;2023-04-30T10:41:19;25.80;87.30
15341;DHT22;7770;52.158;5.372;2023-04-30T10:44:06;26.20;84.90
15341;DHT22;7770;52.158;5.372;2023-04-30T10:47:00;24.60;86.00
15341;DHT22;7770;52.158;5.372;2023-04-30T10:49:48;23.50;87.80
15341;DHT22;7770;52.158;5.372;2023-04-30T10:52:37;23.60;87.30
15341;DHT22;7770;52.158;5.372;2023-04-30T10:55:23;24.80;88.80
15341;DHT22;7770;52.158;5.372;2023-04-30T10:58:41;26.20;84.50
15341;DHT22;7770;52.158;5.372;2023-04-30T11:01:29;25.40;84.10
15341;DHT22;7770;52.158;5.372;2023-04-30T11:04:15;24.70;87.10
15341;DHT22;7770;52.158;5.372;2023-04-30T11:07:08;25.90;86.00
15341;DHT22;7770;52.158;5.372;2023-04-30T11:09:56;25.00;85.80
15341;DHT22;7770;52.158;5.372;2023-04-30T11:12:50;25.20;86.20
15341;DHT22;7770;52.158;5.372;2023-04-30T11:15:40;25.40;86.10
15341;DHT22;7770;52.158;5.372;2023-04-30T11:18:26;25.80;86.10
15341;DHT22;7770;52.158;5.372;2023-04-30T11:21:13;25.20;86.50
15341;DHT22;7770;52.158;5.372;2023-04-30T11:24:02;23.70;88.30
15341;DHT22;7770;52.158;5.372;2023-04-30T11:27:07;23.10;89.50
15341;DHT22;7770;52.158;5.372;2023-04-30T11:29:54;22.70;90.10
15341;DHT22;7770;52.158;5.372;2023-04-30T11:32:44;23.10;90.50
15341;DHT22;7770;52.158;5.372;2023-04-30T11:35:32;22.80;90.40
15341;DHT22;7770;52.158;5.372;2023-04-30T11:38:36;23.40;88.90
15341;DHT22;7770;52.158;5.372;2023-04-30T11:41:22;23.10;90.10
15341;DHT22;7770;52.158;5.372;2023-04-30T11:44:22;23.00;90.00
15341;DHT22;7770;52.158;5.372;2023-04-30T11:47:11;22.30;91.70
15341;DHT22;7770;52.158;5.372;2023-04-30T11:49:58;23.50;90.50
15341;DHT22;7770;52.158;5.372;2023-04-30T11:52:48;23.30;89.70
15341;DHT22;7770;52.158;5.372;2023-04-30T11:55:35;22.40;90.70
15341;DHT22;7770;52.158;5.372;2023-04-30T11:58:21;22.80;89.90
15341;DHT22;7770;52.158;5.372;2023-04-30T12:01:08;22.20;90.70
15341;DHT22;7770;52.158;5.372;2023-04-30T12:03:55;21.90;91.80
15341;DHT22;7770;52.158;5.372;2023-04-30T12:06:41;21.60;92.30
15341;DHT22;7770;52.158;5.372;2023-04-30T12:09:28;20.50;92.40
15341;DHT22;7770;52.158;5.372;2023-04-30T12:12:25;20.70;92.30
15341;DHT22;7770;52.158;5.372;2023-04-30T12:15:17;20.40;92.20
15341;DHT22;7770;52.158;5.372;2023-04-30T12:18:13;20.80;92.70
15341;DHT22;7770;52.158;5.372;2023-04-30T12:21:00;21.50;92.00
15341;DHT22;7770;52.158;5.372;2023-04-30T12:23:46;21.20;91.20
15341;DHT22;7770;52.158;5.372;2023-04-30T12:26:39;20.40;91.40
15341;DHT22;7770;52.158;5.372;2023-04-30T12:29:26;20.10;91.90
15341;DHT22;7770;52.158;5.372;2023-04-30T12:32:12;20.60;91.70
15341;DHT22;7770;52.158;5.372;2023-04-30T12:35:03;20.30;91.90
15341;DHT22;7770;52.158;5.372;2023-04-30T12:37:51;20.60;91.00
15341;DHT22;7770;52.158;5.372;2023-04-30T12:40:39;20.30;91.90
15341;DHT22;7770;52.158;5.372;2023-04-30T12:43:31;20.10;92.40
15341;DHT22;7770;52.158;5.372;2023-04-30T12:46:25;19.50;93.20
15341;DHT22;7770;52.158;5.372;2023-04-30T12:49:23;20.10;93.10
15341;DHT22;7770;52.158;5.372;2023-04-30T12:52:12;19.40;92.30
15341;DHT22;7770;52.158;5.372;2023-04-30T12:55:14;18.90;93.30
15341;DHT22;7770;52.158;5.372;2023-04-30T12:58:14;19.30;92.90
15341;DHT22;7770;52.158;5.372;2023-04-30T13:01:01;19.60;92.70
15341;DHT22;7770;52.158;5.372;2023-04-30T13:03:47;19.80;92.40
15341;DHT22;7770;52.158;5.372;2023-04-30T13:06:33;19.90;92.20
15341;DHT22;7770;52.158;5.372;2023-04-30T13:09:19;19.30;93.40
15341;DHT22;7770;52.158;5.372;2023-04-30T13:12:06;19.10;93.60
15341;DHT22;7770;52.158;5.372;2023-04-30T13:14:53;19.50;93.30
15341;DHT22;7770;52.158;5.372;2023-04-30T13:17:39;19.20;93.00
15341;DHT22;7770;52.158;5.372;2023-04-30T13:20:25;19.10;93.60
15341;DHT22;7770;52.158;5.372;2023-04-30T13:23:12;19.30;93.00
15341;DHT22;7770;52.158;5.372;2023-04-30T13:25:58;19.30;92.80
15341;DHT22;7770;52.158;5.372;2023-04-30T13:28:44;19.50;92.00
15341;DHT22;7770;52.158;5.372;2023-04-30T13:31:30;19.40;92.90
15341;DHT22;7770;52.158;5.372;2023-04-30T13:34:16;19.40;92.50
15341;DHT22;7770;52.158;5.372;2023-04-30T13:37:02;19.50;92.90
15341;DHT22;7770;52.158;5.372;2023-04-30T13:39:48;19.30;92.70
15341;DHT22;7770;52.158;5.372;2023-04-30T13:42:37;19.20;92.70
15341;DHT22;7770;52.158;5.372;2023-04-30T13:45:23;19.10;92.60
15341;DHT22;7770;52.158;5.372;2023-04-30T13:48:09;19.00;93.00
15341;DHT22;7770;52.158;5.372;2023-04-30T13:50:55;19.20;93.00
15341;DHT22;7770;52.158;5.372;2023-04-30T13:53:41;19.20;92.40
15341;DHT22;7770;52.158;5.372;2023-04-30T13:56:28;19.10;92.30
15341;DHT22;7770;52.158;5.372;2023-04-30T13:59:14;18.90;92.70
15341;DHT22;7770;52.158;5.372;2023-04-30T14:02:00;18.90;92.30
15341;DHT22;7770;52.158;5.372;2023-04-30T14:04:46;18.90;92.50
15341;DHT22;7770;52.158;5.372;2023-04-30T14:07:32;18.90;92.30
15341;DHT22;7770;52.158;5.372;2023-04-30T14:10:18;19.00;92.30
15341;DHT22;7770;52.158;5.372;2023-04-30T14:13:04;19.20;92.30
15341;DHT22;7770;52.158;5.372;2023-04-30T14:15:51;18.50;92.10
15341;DHT22;7770;52.158;5.372;2023-04-30T14:18:37;18.70;92.80
15341;DHT22;7770;52.158;5.372;2023-04-30T14:21:23;19.00;92.80
15341;DHT22;7770;52.158;5.372;2023-04-30T14:24:10;19.40;92.40
15341;DHT22;7770;52.158;5.372;2023-04-30T14:26:57;19.20;92.70
15341;DHT22;7770;52.158;5.372;2023-04-30T14:29:45;19.00;92.70
15341;DHT22;7770;52.158;5.372;2023-04-30T14:32:31;19.00;92.70
15341;DHT22;7770;52.158;5.372;2023-04-30T14:35:17;18.80;92.50
15341;DHT22;7770;52.158;5.372;2023-04-30T14:38:03;18.70;92.90
15341;DHT22;7770;52.158;5.372;2023-04-30T14:40:49;18.70;92.60
15341;DHT22;7770;52.158;5.372;2023-04-30T14:43:35;19.10;92.60
15341;DHT22;7770;52.158;5.372;2023-04-30T14:46:21;19.20;92.40
15341;DHT22;7770;52.158;5.372;2023-04-30T14:49:07;19.10;92.70
15341;DHT22;7770;52.158;5.372;2023-04-30T14:51:53;19.10;93.00
15341;DHT22;7770;52.158;5.372;2023-04-30T14:54:39;18.90;93.00
15341;DHT22;7770;52.158;5.372;2023-04-30T14:57:25;18.50;93.70
15341;DHT22;7770;52.158;5.372;2023-04-30T15:00:13;18.40;93.50
15341;DHT22;7770;52.158;5.372;2023-04-30T15:03:00;18.50;92.90
15341;DHT22;7770;52.158;5.372;2023-04-30T15:05:46;18.60;93.00
15341;DHT22;7770;52.158;5.372;2023-04-30T15:08:34;18.30;93.20
15341;DHT22;7770;52.158;5.372;2023-04-30T15:11:20;18.30;93.20
15341;DHT22;7770;52.158;5.372;2023-04-30T15:14:06;18.20;93.60
15341;DHT22;7770;52.158;5.372;2023-04-30T15:16:52;18.20;93.70
15341;DHT22;7770;52.158;5.372;2023-04-30T15:19:39;18.30;94.00
15341;DHT22;7770;52.158;5.372;2023-04-30T15:22:25;18.30;93.30
15341;DHT22;7770;52.158;5.372;2023-04-30T15:25:11;18.20;93.70
15341;DHT22;7770;52.158;5.372;2023-04-30T15:27:57;18.00;93.10
15341;DHT22;7770;52.158;5.372;2023-04-30T15:30:43;18.30;93.20
15341;DHT22;7770;52.158;5.372;2023-04-30T15:33:29;18.60;92.50
15341;DHT22;7770;52.158;5.372;2023-04-30T15:36:16;18.50;92.40
15341;DHT22;7770;52.158;5.372;2023-04-30T15:39:02;18.30;92.80
15341;DHT22;7770;52.158;5.372;2023-04-30T15:41:48;18.50;93.10
15341;DHT22;7770;52.158;5.372;2023-04-30T15:44:34;18.50;93.10
15341;DHT22;7770;52.158;5.372;2023-04-30T15:47:21;18.40;93.10
15341;DHT22;7770;52.158;5.372;2023-04-30T15:50:08;18.40;93.20
15341;DHT22;7770;52.158;5.372;2023-04-30T15:52:54;18.50;92.90
15341;DHT22;7770;52.158;5.372;2023-04-30T15:55:40;18.60;93.10
15341;DHT22;7770;52.158;5.372;2023-04-30T15:58:27;18.50;92.80
15341;DHT22;7770;52.158;5.372;2023-04-30T16:01:13;18.60;93.30
15341;DHT22;7770;52.158;5.372;2023-04-30T16:03:59;18.50;93.40
15341;DHT22;7770;52.158;5.372;2023-04-30T16:06:45;18.20;93.40
15341;DHT22;7770;52.158;5.372;2023-04-30T16:09:32;18.00;94.10
15341;DHT22;7770;52.158;5.372;2023-04-30T16:12:18;18.00;93.70
15341;DHT22;7770;52.158;5.372;2023-04-30T16:15:04;18.00;93.90
15341;DHT22;7770;52.158;5.372;2023-04-30T16:17:51;18.00;94.00
15341;DHT22;7770;52.158;5.372;2023-04-30T16:20:39;17.80;93.80
15341;DHT22;7770;52.158;5.372;2023-04-30T16:23:26;17.80;93.90
15341;DHT22;7770;52.158;5.372;2023-04-30T16:26:13;17.60;94.10
15341;DHT22;7770;52.158;5.372;2023-04-30T16:29:03;17.60;93.90
15341;DHT22;7770;52.158;5.372;2023-04-30T16:31:49;17.80;93.80
15341;DHT22;7770;52.158;5.372;2023-04-30T16:34:35;17.70;93.70
15341;DHT22;7770;52.158;5.372;2023-04-30T16:37:21;17.70;93.20
15341;DHT22;7770;52.158;5.372;2023-04-30T16:40:07;17.80;92.90
15341;DHT22;7770;52.158;5.372;2023-04-30T16:42:54;17.60;93.40
15341;DHT22;7770;52.158;5.372;2023-04-30T16:45:40;17.50;93.60
15341;DHT22;7770;52.158;5.372;2023-04-30T16:48:26;17.60;93.90
15341;DHT22;7770;52.158;5.372;2023-04-30T16:51:12;17.60;93.70
15341;DHT22;7770;52.158;5.372;2023-04-30T16:53:58;17.50;93.80
15341;DHT22;7770;52.158;5.372;2023-04-30T16:56:44;17.50;93.90
15341;DHT22;7770;52.158;5.372;2023-04-30T16:59:30;17.50;94.00
15341;DHT22;7770;52.158;5.372;2023-04-30T17:02:16;17.50;93.90
15341;DHT22;7770;52.158;5.372;2023-04-30T17:05:03;17.50;93.90
15341;DHT22;7770;52.158;5.372;2023-04-30T17:07:49;17.50;94.10
15341;DHT22;7770;52.158;5.372;2023-04-30T17:10:35;17.40;94.30
15341;DHT22;7770;52.158;5.372;2023-04-30T17:13:23;17.40;94.50
15341;DHT22;7770;52.158;5.372;2023-04-30T17:16:09;17.40;94.50
15341;DHT22;7770;52.158;5.372;2023-04-30T17:18:55;17.40;94.80
15341;DHT22;7770;52.158;5.372;2023-04-30T17:21:41;17.40;94.70
15341;DHT22;7770;52.158;5.372;2023-04-30T17:24:27;17.40;94.90
15341;DHT22;7770;52.158;5.372;2023-04-30T17:27:13;17.20;95.10
15341;DHT22;7770;52.158;5.372;2023-04-30T17:30:00;17.10;95.10
15341;DHT22;7770;52.158;5.372;2023-04-30T17:32:47;17.20;95.50
15341;DHT22;7770;52.158;5.372;2023-04-30T17:35:33;17.00;95.90
15341;DHT22;7770;52.158;5.372;2023-04-30T17:38:19;16.90;96.00
15341;DHT22;7770;52.158;5.372;2023-04-30T17:41:05;16.90;96.30
15341;DHT22;7770;52.158;5.372;2023-04-30T17:43:51;16.90;96.40
15341;DHT22;7770;52.158;5.372;2023-04-30T17:46:37;16.80;96.20
15341;DHT22;7770;52.158;5.372;2023-04-30T17:49:24;16.70;96.50
15341;DHT22;7770;52.158;5.372;2023-04-30T17:52:10;16.70;96.10
15341;DHT22;7770;52.158;5.372;2023-04-30T17:54:56;16.70;96.30
15341;DHT22;7770;52.158;5.372;2023-04-30T17:57:42;16.60;96.40
15341;DHT22;7770;52.158;5.372;2023-04-30T18:00:29;16.60;96.70
15341;DHT22;7770;52.158;5.372;2023-04-30T18:03:15;16.50;96.70
15341;DHT22;7770;52.158;5.372;2023-04-30T18:06:01;16.50;96.70
15341;DHT22;7770;52.158;5.372;2023-04-30T18:08:48;16.40;97.00
15341;DHT22;7770;52.158;5.372;2023-04-30T18:11:34;16.40;97.30
15341;DHT22;7770;52.158;5.372;2023-04-30T18:14:20;16.30;97.40
15341;DHT22;7770;52.158;5.372;2023-04-30T18:17:06;16.20;97.60